createdAt,value
2023-02-16T00:00:38.018Z,87.98
2023-02-16T00:01:33.075Z,87.50
2023-02-16T00:02:17.043Z,87.20
2023-02-16T00:03:04.158Z,87.84
2023-02-16T00:03:37.719Z,88.59
2023-02-16T00:04:46.015Z,87.75
2023-02-16T00:05:32.605Z,89.24
2023-02-16T00:06:23.043Z,88.39
2023-02-16T00:06:58.054Z,87.47
2023-02-16T00:07:45.003Z,87.90
2023-02-16T00:08:25.092Z,88.27
2023-02-16T00:09:05.052Z,88.44
2023-02-16T00:09:45.016Z,89.34
2023-02-16T00:10:26.090Z,88.88
2023-02-16T00:11:24.995Z,89.27
2023-02-16T00:12:24.856Z,88.76
2023-02-16T00:13:24.016Z,89.70
2023-02-16T00:14:04.002Z,89.87
2023-02-16T00:14:40.071Z,90.46
2023-02-16T00:15:27.991Z,90.84
2023-02-16T00:16:02.113Z,90.31
2023-02-16T00:16:49.010Z,90.06
2023-02-16T00:17:23.072Z,91.12
2023-02-16T00:18:12.017Z,92.90
2023-02-16T00:18:53.023Z,92.86
2023-02-16T00:19:51.014Z,91.33
2023-02-16T00:20:45.012Z,91.84
2023-02-16T00:21:38.974Z,91.48
2023-02-16T00:22:32.974Z,91.42
2023-02-16T00:23:27.004Z,92.17
2023-02-16T00:24:14.016Z,92.47
2023-02-16T00:24:48.056Z,92.37
2023-02-16T00:25:34.999Z,92.07
2023-02-16T00:26:09.042Z,91.92
2023-02-16T00:26:56.976Z,92.33
2023-02-16T00:27:31.063Z,92.45
2023-02-16T00:28:25.002Z,92.28
2023-02-16T00:29:03.053Z,92.63
2023-02-16T00:29:45.864Z,92.16
2023-02-16T00:30:28.093Z,91.88
2023-02-16T00:31:08.226Z,91.69
2023-02-16T00:31:48.157Z,91.83
2023-02-16T00:32:28.978Z,92.01
2023-02-16T00:33:09.051Z,92.02
2023-02-16T00:33:49.978Z,91.93
2023-02-16T00:34:51.010Z,92.21
2023-02-16T00:35:45.016Z,92.09
2023-02-16T00:36:39.002Z,91.78
2023-02-16T00:37:32.987Z,92.18
2023-02-16T00:38:27.994Z,92.29
2023-02-16T00:39:21.973Z,92.18
2023-02-16T00:40:09.995Z,91.64
2023-02-16T00:40:44.065Z,91.80
2023-02-16T00:41:49.971Z,92.02
2023-02-16T00:42:34.078Z,91.84
2023-02-16T00:43:13.974Z,92.11
2023-02-16T00:43:54.891Z,92.38
2023-02-16T00:44:42.975Z,92.31
2023-02-16T00:45:33.992Z,92.05
2023-02-16T00:46:09.033Z,92.65
2023-02-16T00:46:57.986Z,93.07
2023-02-16T00:47:38.987Z,93.28
2023-02-16T00:48:25.995Z,92.87
2023-02-16T00:48:59.651Z,92.65
2023-02-16T00:49:46.989Z,92.78
2023-02-16T00:50:24.727Z,93.07
2023-02-16T00:51:20.340Z,94.40
2023-02-16T00:51:59.084Z,94.38
2023-02-16T00:52:39.184Z,93.90
2023-02-16T00:53:19.955Z,93.72
2023-02-16T00:53:54.078Z,93.57
2023-02-16T00:54:28.214Z,93.61
2023-02-16T00:55:37.004Z,93.65
2023-02-16T00:56:19.010Z,93.80
2023-02-16T00:56:52.683Z,94.12
2023-02-16T00:57:43.980Z,93.83
2023-02-16T00:58:31.906Z,93.86
2023-02-16T00:59:21.989Z,94.04
2023-02-16T01:00:03.955Z,93.44
2023-02-16T01:00:57.961Z,93.92
2023-02-16T01:01:39.021Z,94.15
2023-02-16T01:02:23.049Z,93.39
2023-02-16T01:03:09.953Z,93.96
2023-02-16T01:03:50.999Z,94.15
2023-02-16T01:04:31.102Z,93.68
2023-02-16T01:05:12.030Z,93.94
2023-02-16T01:05:51.954Z,94.26
2023-02-16T01:06:56.997Z,94.39
2023-02-16T01:07:49.511Z,94.93
2023-02-16T01:08:54.963Z,94.46
2023-02-16T01:09:47.363Z,94.49
2023-02-16T01:10:51.957Z,93.81
2023-02-16T01:11:26.669Z,93.77
2023-02-16T01:12:17.001Z,93.88
2023-02-16T01:12:50.740Z,94.24
2023-02-16T01:13:41.932Z,94.44
2023-02-16T01:14:15.676Z,94.25
2023-02-16T01:15:06.995Z,94.99
2023-02-16T01:15:41.772Z,95.39
2023-02-16T01:16:33.970Z,94.85
2023-02-16T01:17:07.730Z,94.75
2023-02-16T01:17:48.954Z,95.22
2023-02-16T01:18:25.022Z,95.50
2023-02-16T01:18:58.695Z,95.92
2023-02-16T01:19:38.930Z,95.41
2023-02-16T01:20:31.991Z,95.17
2023-02-16T01:21:05.786Z,95.50
2023-02-16T01:21:46.945Z,95.70
2023-02-16T01:22:21.020Z,95.16
2023-02-16T01:23:00.985Z,94.96
2023-02-16T01:23:42.033Z,94.99
2023-02-16T01:24:21.957Z,95.58
2023-02-16T01:25:02.005Z,95.84
2023-02-16T01:25:43.934Z,95.32
2023-02-16T01:26:26.979Z,95.41
2023-02-16T01:27:06.916Z,96.06
2023-02-16T01:27:47.995Z,95.65
2023-02-16T01:28:32.933Z,96.23
2023-02-16T01:29:13.999Z,95.23
2023-02-16T01:29:53.931Z,96.05
2023-02-16T01:30:35.008Z,95.82
2023-02-16T01:31:18.025Z,96.31
2023-02-16T01:31:58.193Z,96.51
2023-02-16T01:32:37.916Z,96.44
2023-02-16T01:33:18.042Z,95.80
2023-02-16T01:33:57.923Z,95.59
2023-02-16T01:34:39.367Z,96.07
2023-02-16T01:35:20.932Z,96.35
2023-02-16T01:36:02.994Z,96.96
2023-02-16T01:36:50.951Z,96.33
2023-02-16T01:37:30.994Z,96.43
2023-02-16T01:38:10.931Z,96.77
2023-02-16T01:38:51.974Z,96.48
2023-02-16T01:39:31.936Z,97.30
2023-02-16T01:40:12.987Z,97.65
2023-02-16T01:41:45.912Z,97.53
2023-02-16T01:42:51.741Z,97.98
2023-02-16T01:43:52.905Z,97.12
2023-02-16T01:45:11.949Z,97.89
2023-02-16T01:45:51.618Z,97.96
2023-02-16T01:47:06.906Z,97.76
2023-02-16T01:47:50.062Z,97.50
2023-02-16T01:48:44.940Z,97.30
2023-02-16T01:49:20.477Z,98.40
2023-02-16T01:50:07.894Z,97.91
2023-02-16T01:51:31.941Z,98.34
2023-02-16T01:52:33.008Z,97.66
2023-02-16T01:53:27.903Z,97.34
2023-02-16T01:54:27.990Z,97.73
2023-02-16T01:55:33.915Z,97.82
2023-02-16T01:56:30.028Z,98.05
2023-02-16T01:57:17.898Z,98.74
2023-02-16T01:58:58.942Z,98.19
2023-02-16T01:59:54.907Z,97.85
2023-02-16T02:01:01.021Z,97.82
2023-02-16T02:01:48.922Z,97.70
2023-02-16T02:03:25.920Z,98.28
2023-02-16T02:04:18.427Z,98.18
2023-02-16T02:05:37.887Z,98.32
2023-02-16T02:06:15.486Z,98.18
2023-02-16T02:07:02.891Z,98.13
2023-02-16T02:07:58.788Z,98.78
2023-02-16T02:08:53.957Z,98.99
2023-02-16T02:10:01.889Z,98.94
2023-02-16T02:11:20.900Z,98.93
2023-02-16T02:12:33.897Z,98.74
2023-02-16T02:13:42.900Z,98.67
2023-02-16T02:14:35.910Z,98.92
2023-02-16T02:15:17.134Z,99.19
2023-02-16T02:15:56.926Z,98.99
2023-02-16T02:16:36.970Z,98.54
2023-02-16T02:17:21.902Z,99.47
2023-02-16T02:18:01.955Z,98.41
2023-02-16T02:18:42.861Z,98.75
2023-02-16T02:19:22.963Z,99.09
2023-02-16T02:20:11.910Z,99.36
2023-02-16T02:21:41.568Z,99.39
2023-02-16T02:23:22.850Z,99.76
2023-02-16T02:24:17.948Z,100.00
2023-02-16T02:25:57.915Z,100.00
2023-02-16T02:26:55.943Z,100.00
2023-02-16T02:28:02.866Z,99.50
2023-02-16T02:28:56.939Z,100.00
2023-02-16T02:30:12.930Z,100.00
2023-02-16T02:31:09.208Z,100.00
2023-02-16T02:32:29.872Z,100.00
2023-02-16T02:33:59.846Z,100.00
2023-02-16T02:35:30.871Z,100.00
2023-02-16T02:36:52.066Z,100.00
2023-02-16T02:38:12.908Z,100.00
2023-02-16T02:39:38.854Z,100.00
2023-02-16T02:41:02.219Z,100.00
2023-02-16T02:42:14.889Z,100.00
2023-02-16T02:43:27.866Z,100.00
2023-02-16T02:44:22.826Z,100.00
2023-02-16T02:45:35.844Z,100.00
2023-02-16T02:46:40.886Z,100.00
2023-02-16T02:47:35.874Z,100.00
2023-02-16T02:48:29.850Z,100.00
2023-02-16T02:49:23.844Z,100.00
2023-02-16T02:50:47.840Z,100.00
2023-02-16T02:51:46.831Z,100.00
2023-02-16T02:52:40.897Z,100.00
2023-02-16T02:53:34.857Z,100.00
2023-02-16T02:54:53.830Z,100.00
2023-02-16T02:56:08.830Z,100.00
2023-02-16T02:58:03.853Z,100.00
2023-02-16T02:59:18.843Z,100.00
2023-02-16T03:00:46.914Z,99.97
2023-02-16T03:01:41.936Z,100.00
2023-02-16T03:02:37.823Z,99.60
2023-02-16T03:03:42.839Z,99.45
2023-02-16T03:04:17.890Z,99.70
2023-02-16T03:05:05.831Z,99.91
2023-02-16T03:05:40.900Z,99.76
2023-02-16T03:06:43.846Z,99.65
2023-02-16T03:07:18.904Z,99.64
2023-02-16T03:08:20.827Z,99.41
2023-02-16T03:09:06.911Z,99.16
2023-02-16T03:10:20.831Z,98.91
2023-02-16T03:11:48.241Z,98.76
2023-02-16T03:12:54.808Z,99.68
2023-02-16T03:13:59.819Z,99.58
2023-02-16T03:14:46.842Z,99.38
2023-02-16T03:15:26.888Z,99.55
2023-02-16T03:16:13.825Z,99.62
2023-02-16T03:17:19.204Z,100.00
2023-02-16T03:18:19.820Z,100.00
2023-02-16T03:19:19.438Z,100.00
2023-02-16T03:20:18.834Z,100.00
2023-02-16T03:21:18.878Z,99.82
2023-02-16T03:22:18.829Z,100.00
2023-02-16T03:23:17.384Z,100.00
2023-02-16T03:24:16.793Z,99.68
2023-02-16T03:25:15.484Z,99.68
2023-02-16T03:26:16.838Z,99.75
2023-02-16T03:27:15.239Z,100.00
2023-02-16T03:28:13.808Z,100.00
2023-02-16T03:29:12.374Z,99.95
2023-02-16T03:29:55.855Z,99.23
2023-02-16T03:30:37.010Z,99.84
2023-02-16T03:31:30.931Z,99.43
2023-02-16T03:32:10.904Z,99.10
2023-02-16T03:32:51.808Z,99.28
2023-02-16T03:33:32.898Z,98.95
2023-02-16T03:34:13.803Z,98.70
2023-02-16T03:34:53.874Z,98.70
2023-02-16T03:35:34.796Z,98.14
2023-02-16T03:36:14.877Z,98.38
2023-02-16T03:37:05.801Z,99.03
2023-02-16T03:37:47.851Z,98.75
2023-02-16T03:38:28.856Z,98.91
2023-02-16T03:39:09.845Z,99.27
2023-02-16T03:40:08.805Z,98.76
2023-02-16T03:40:49.883Z,98.63
2023-02-16T03:41:32.771Z,98.36
2023-02-16T03:42:19.792Z,98.03
2023-02-16T03:43:19.767Z,98.66
2023-02-16T03:44:13.764Z,97.99
2023-02-16T03:45:07.803Z,98.81
2023-02-16T03:46:01.795Z,98.34
2023-02-16T03:46:58.812Z,98.29
2023-02-16T03:47:38.806Z,98.75
2023-02-16T03:48:18.905Z,98.08
2023-02-16T03:48:58.756Z,98.18
2023-02-16T03:49:39.831Z,98.38
2023-02-16T03:50:20.784Z,98.45
2023-02-16T03:51:00.852Z,98.03
2023-02-16T03:51:40.799Z,98.80
2023-02-16T03:52:20.840Z,98.53
2023-02-16T03:53:12.790Z,98.35
2023-02-16T03:53:52.825Z,98.49
2023-02-16T03:54:32.792Z,97.86
2023-02-16T03:55:12.831Z,97.97
2023-02-16T03:55:54.751Z,97.46
2023-02-16T03:56:34.865Z,98.02
2023-02-16T03:57:14.817Z,97.38
2023-02-16T03:57:55.859Z,97.80
2023-02-16T03:58:35.805Z,97.85
2023-02-16T03:59:15.942Z,98.34
2023-02-16T03:59:59.279Z,98.51
2023-02-16T04:00:40.806Z,98.03
2023-02-16T04:01:20.756Z,98.36
2023-02-16T04:02:00.892Z,99.28
2023-02-16T04:02:41.772Z,98.45
2023-02-16T04:03:21.851Z,98.58
2023-02-16T04:04:01.880Z,98.03
2023-02-16T04:04:41.821Z,98.63
2023-02-16T04:05:21.806Z,98.32
2023-02-16T04:06:02.816Z,98.28
2023-02-16T04:06:42.761Z,99.12
2023-02-16T04:07:22.862Z,98.41
2023-02-16T04:08:03.780Z,98.30
2023-02-16T04:08:43.852Z,98.42
2023-02-16T04:09:23.805Z,98.38
2023-02-16T04:10:18.755Z,98.47
2023-02-16T04:11:30.757Z,98.66
2023-02-16T04:12:44.768Z,98.58
2023-02-16T04:13:38.761Z,98.81
2023-02-16T04:14:32.784Z,98.36
2023-02-16T04:15:36.755Z,98.30
2023-02-16T04:16:30.842Z,98.68
2023-02-16T04:17:24.788Z,98.65
2023-02-16T04:18:18.744Z,98.74
2023-02-16T04:19:13.773Z,98.90
2023-02-16T04:19:53.785Z,98.24
2023-02-16T04:20:38.886Z,98.04
2023-02-16T04:21:18.740Z,98.23
2023-02-16T04:21:58.804Z,98.16
2023-02-16T04:22:38.731Z,97.68
2023-02-16T04:23:18.840Z,97.87
2023-02-16T04:23:59.748Z,98.04
2023-02-16T04:24:39.830Z,97.76
2023-02-16T04:25:21.808Z,98.08
2023-02-16T04:26:02.809Z,97.90
2023-02-16T04:26:42.750Z,98.13
2023-02-16T04:27:22.807Z,97.96
2023-02-16T04:28:03.742Z,97.88
2023-02-16T04:28:43.801Z,98.50
2023-02-16T04:29:23.761Z,98.85
2023-02-16T04:30:04.874Z,98.59
2023-02-16T04:30:44.835Z,98.85
2023-02-16T04:31:24.922Z,98.62
2023-02-16T04:32:04.896Z,98.26
2023-02-16T04:32:44.791Z,98.88
2023-02-16T04:33:24.719Z,98.38
2023-02-16T04:34:04.783Z,98.42
2023-02-16T04:34:44.728Z,97.76
2023-02-16T04:35:25.802Z,97.88
2023-02-16T04:36:05.743Z,97.86
2023-02-16T04:36:45.832Z,98.16
2023-02-16T04:37:25.759Z,98.11
2023-02-16T04:38:06.774Z,98.55
2023-02-16T04:38:53.746Z,98.35
2023-02-16T04:39:27.830Z,98.25
2023-02-16T04:40:19.771Z,97.70
2023-02-16T04:40:53.772Z,98.22
2023-02-16T04:41:33.714Z,98.39
2023-02-16T04:42:13.762Z,98.74
2023-02-16T04:42:53.702Z,98.41
2023-02-16T04:43:35.822Z,98.86
2023-02-16T04:44:15.722Z,98.94
2023-02-16T04:45:09.705Z,98.31
2023-02-16T04:46:03.757Z,98.11
2023-02-16T04:46:50.754Z,98.08
2023-02-16T04:47:26.617Z,98.50
2023-02-16T04:48:13.721Z,97.85
2023-02-16T04:48:47.789Z,97.77
2023-02-16T04:49:34.759Z,98.25
2023-02-16T04:50:08.796Z,98.36
2023-02-16T04:50:56.714Z,97.96
2023-02-16T04:51:30.770Z,98.37
2023-02-16T04:52:11.724Z,97.97
2023-02-16T04:52:51.779Z,98.13
2023-02-16T04:53:31.702Z,97.84
2023-02-16T04:54:15.769Z,97.78
2023-02-16T04:54:55.907Z,97.70
2023-02-16T04:55:35.746Z,98.08
2023-02-16T04:56:17.728Z,98.35
2023-02-16T04:56:57.811Z,98.28
2023-02-16T04:57:38.748Z,98.29
2023-02-16T04:58:19.765Z,98.43
2023-02-16T04:58:59.707Z,98.37
2023-02-16T04:59:39.752Z,98.14
2023-02-16T05:00:21.732Z,98.67
2023-02-16T05:01:02.000Z,98.18
2023-02-16T05:01:41.741Z,98.46
2023-02-16T05:03:01.723Z,98.53
2023-02-16T05:03:55.685Z,97.94
2023-02-16T05:04:49.779Z,98.71
2023-02-16T05:05:43.722Z,98.83
2023-02-16T05:06:37.720Z,97.80
2023-02-16T05:07:31.681Z,98.06
2023-02-16T05:08:20.827Z,97.97
2023-02-16T05:08:54.751Z,98.18
2023-02-16T05:09:41.709Z,98.38
2023-02-16T05:10:16.770Z,98.74
2023-02-16T05:11:22.688Z,98.04
2023-02-16T05:12:15.810Z,97.31
2023-02-16T05:13:21.747Z,97.95
2023-02-16T05:14:14.140Z,98.02
2023-02-16T05:15:00.662Z,98.34
2023-02-16T05:15:34.755Z,97.86
2023-02-16T05:16:21.687Z,97.95
2023-02-16T05:16:55.759Z,97.94
2023-02-16T05:17:42.713Z,97.39
2023-02-16T05:18:16.767Z,97.64
2023-02-16T05:18:58.795Z,98.17
2023-02-16T05:19:39.370Z,97.08
2023-02-16T05:20:21.857Z,97.41
2023-02-16T05:21:20.447Z,97.74
2023-02-16T05:22:00.709Z,97.27
2023-02-16T05:22:40.906Z,98.04
2023-02-16T05:23:21.705Z,97.70
2023-02-16T05:24:08.838Z,98.01
2023-02-16T05:25:02.733Z,98.19
2023-02-16T05:25:56.744Z,97.59
2023-02-16T05:26:51.697Z,97.71
2023-02-16T05:27:45.790Z,97.86
2023-02-16T05:28:39.695Z,97.56
2023-02-16T05:29:27.695Z,97.94
2023-02-16T05:30:01.860Z,97.43
2023-02-16T05:30:48.732Z,97.50
2023-02-16T05:31:22.986Z,97.55
2023-02-16T05:32:09.715Z,96.75
2023-02-16T05:32:43.750Z,97.20
2023-02-16T05:33:30.656Z,97.22
2023-02-16T05:34:04.770Z,97.12
2023-02-16T05:34:52.669Z,97.30
2023-02-16T05:35:26.768Z,97.10
2023-02-16T05:36:14.668Z,97.11
2023-02-16T05:36:48.838Z,98.07
2023-02-16T05:37:35.677Z,98.21
2023-02-16T05:38:09.738Z,97.58
2023-02-16T05:38:57.693Z,97.53
2023-02-16T05:39:31.813Z,97.48
2023-02-16T05:40:14.677Z,98.71
2023-02-16T05:40:54.759Z,98.30
2023-02-16T05:41:39.125Z,98.24
2023-02-16T05:42:19.751Z,98.77
2023-02-16T05:43:01.671Z,98.79
2023-02-16T05:43:41.714Z,98.25
2023-02-16T05:44:22.673Z,98.42
2023-02-16T05:45:03.539Z,98.20
2023-02-16T05:45:45.670Z,98.66
2023-02-16T05:46:26.808Z,98.85
2023-02-16T05:47:06.674Z,98.50
2023-02-16T05:47:48.755Z,99.38
2023-02-16T05:48:31.680Z,98.84
2023-02-16T05:49:13.729Z,98.21
2023-02-16T05:49:53.688Z,98.54
2023-02-16T05:50:33.722Z,98.48
2023-02-16T05:51:13.693Z,98.63
2023-02-16T05:51:55.119Z,98.14
2023-02-16T05:52:34.663Z,98.66
2023-02-16T05:53:17.716Z,98.24
2023-02-16T05:53:58.639Z,98.64
2023-02-16T05:54:38.810Z,98.53
2023-02-16T05:55:19.690Z,98.09
2023-02-16T05:56:00.754Z,97.98
2023-02-16T05:56:40.755Z,98.27
2023-02-16T05:57:20.793Z,98.62
2023-02-16T05:58:00.659Z,97.87
2023-02-16T05:58:40.702Z,98.64
2023-02-16T05:59:22.633Z,98.65
2023-02-16T06:00:03.774Z,98.58
2023-02-16T06:00:44.716Z,98.82
2023-02-16T06:01:24.752Z,99.49
2023-02-16T06:02:05.643Z,98.88
2023-02-16T06:02:45.774Z,98.14
2023-02-16T06:03:25.704Z,98.68
2023-02-16T06:04:06.796Z,99.09
2023-02-16T06:04:46.638Z,98.68
2023-02-16T06:05:26.764Z,99.36
2023-02-16T06:06:09.669Z,99.16
2023-02-16T06:06:50.253Z,99.74
2023-02-16T06:07:30.669Z,100.00
2023-02-16T06:08:11.726Z,99.59
2023-02-16T06:08:52.667Z,99.64
2023-02-16T06:09:32.720Z,99.56
2023-02-16T06:10:16.771Z,98.57
2023-02-16T06:10:57.836Z,99.84
2023-02-16T06:11:43.650Z,99.84
2023-02-16T06:12:24.693Z,99.67
2023-02-16T06:13:04.682Z,99.57
2023-02-16T06:13:44.712Z,99.92
2023-02-16T06:14:27.650Z,98.64
2023-02-16T06:15:08.736Z,99.24
2023-02-16T06:15:49.747Z,99.61
2023-02-16T06:16:33.787Z,99.49
2023-02-16T06:17:13.659Z,99.28
2023-02-16T06:17:53.701Z,99.36
2023-02-16T06:18:33.680Z,99.50
2023-02-16T06:19:16.263Z,99.80
2023-02-16T06:19:57.640Z,99.40
2023-02-16T06:20:37.746Z,99.40
2023-02-16T06:21:19.839Z,100.00
2023-02-16T06:21:59.696Z,99.68
2023-02-16T06:22:39.643Z,100.00
2023-02-16T06:23:33.634Z,99.57
2023-02-16T06:24:27.683Z,99.61
2023-02-16T06:25:21.644Z,99.59
2023-02-16T06:26:15.650Z,99.51
2023-02-16T06:27:09.643Z,99.67
2023-02-16T06:28:03.651Z,99.04
2023-02-16T06:28:51.642Z,98.95
2023-02-16T06:29:25.695Z,98.69
2023-02-16T06:30:14.667Z,99.22
2023-02-16T06:30:48.701Z,99.15
2023-02-16T06:31:36.854Z,98.81
2023-02-16T06:32:11.799Z,98.99
2023-02-16T06:32:58.605Z,98.64
2023-02-16T06:33:32.699Z,98.23
2023-02-16T06:34:13.637Z,98.37
2023-02-16T06:34:55.769Z,98.34
2023-02-16T06:35:36.623Z,98.96
2023-02-16T06:36:17.673Z,98.30
2023-02-16T06:37:01.020Z,99.33
2023-02-16T06:37:41.661Z,98.88
2023-02-16T06:38:21.619Z,99.04
2023-02-16T06:39:01.682Z,99.17
2023-02-16T06:39:42.683Z,98.65
2023-02-16T06:40:23.790Z,98.95
2023-02-16T06:41:03.929Z,98.72
2023-02-16T06:41:44.688Z,98.98
2023-02-16T06:42:24.594Z,99.45
2023-02-16T06:43:04.764Z,98.93
2023-02-16T06:43:45.633Z,98.50
2023-02-16T06:44:25.699Z,98.57
2023-02-16T06:45:05.671Z,99.32
2023-02-16T06:45:45.717Z,99.40
2023-02-16T06:46:25.675Z,99.02
2023-02-16T06:47:05.671Z,99.27
2023-02-16T06:47:46.606Z,99.67
2023-02-16T06:48:26.675Z,99.20
2023-02-16T06:49:07.603Z,99.64
2023-02-16T06:49:47.666Z,99.45
2023-02-16T06:50:28.609Z,99.51
2023-02-16T06:51:08.720Z,100.00
2023-02-16T06:51:49.663Z,99.67
2023-02-16T06:52:29.791Z,99.88
2023-02-16T06:53:10.599Z,100.00
2023-02-16T06:53:50.714Z,100.00
2023-02-16T06:54:30.634Z,100.00
2023-02-16T06:55:10.695Z,99.95
2023-02-16T06:55:51.663Z,100.00
2023-02-16T06:56:31.730Z,100.00
2023-02-16T06:57:11.587Z,100.00
2023-02-16T06:57:51.659Z,100.00
2023-02-16T06:58:31.629Z,100.00
2023-02-16T06:59:11.689Z,100.00
2023-02-16T06:59:52.610Z,100.00
2023-02-16T07:00:32.647Z,100.00
2023-02-16T07:01:12.732Z,99.85
2023-02-16T07:01:52.791Z,100.00
2023-02-16T07:02:55.614Z,100.00
2023-02-16T07:03:49.600Z,100.00
2023-02-16T07:04:43.563Z,100.00
2023-02-16T07:05:38.572Z,99.77
2023-02-16T07:06:33.629Z,99.43
2023-02-16T07:07:27.582Z,99.88
2023-02-16T07:08:21.620Z,100.00
2023-02-16T07:09:16.592Z,100.00
2023-02-16T07:10:10.597Z,100.00
2023-02-16T07:11:06.861Z,100.00
2023-02-16T07:11:54.597Z,100.00
2023-02-16T07:12:28.668Z,100.00
2023-02-16T07:13:15.562Z,100.00
2023-02-16T07:13:49.717Z,100.00
2023-02-16T07:14:38.586Z,100.00
2023-02-16T07:15:13.655Z,100.00
2023-02-16T07:16:00.626Z,100.00
2023-02-16T07:16:34.745Z,100.00
2023-02-16T07:17:15.584Z,100.00
2023-02-16T07:18:09.621Z,100.00
2023-02-16T07:19:03.574Z,100.00
2023-02-16T07:19:59.879Z,100.00
2023-02-16T07:20:53.607Z,100.00
2023-02-16T07:21:47.607Z,100.00
2023-02-16T07:22:36.628Z,100.00
2023-02-16T07:23:10.640Z,100.00
2023-02-16T07:23:57.558Z,100.00
2023-02-16T07:24:31.615Z,100.00
2023-02-16T07:25:18.537Z,100.00
2023-02-16T07:25:52.702Z,100.00
2023-02-16T07:26:39.570Z,100.00
2023-02-16T07:27:13.659Z,100.00
2023-02-16T07:28:01.593Z,100.00
2023-02-16T07:28:36.686Z,100.00
2023-02-16T07:29:23.579Z,100.00
2023-02-16T07:29:57.697Z,100.00
2023-02-16T07:30:44.588Z,100.00
2023-02-16T07:31:26.385Z,100.00
2023-02-16T07:32:13.601Z,100.00
2023-02-16T07:32:47.656Z,100.00
2023-02-16T07:33:28.584Z,100.00
2023-02-16T07:34:09.629Z,100.00
2023-02-16T07:34:49.598Z,100.00
2023-02-16T07:35:29.714Z,100.00
2023-02-16T07:36:10.554Z,100.00
2023-02-16T07:36:50.613Z,100.00
2023-02-16T07:37:30.546Z,100.00
2023-02-16T07:38:12.584Z,100.00
2023-02-16T07:38:52.584Z,100.00
2023-02-16T07:39:32.784Z,100.00
2023-02-16T07:40:13.624Z,100.00
2023-02-16T07:40:53.593Z,100.00
2023-02-16T07:41:33.564Z,100.00
2023-02-16T07:42:14.643Z,100.00
2023-02-16T07:42:54.748Z,100.00
2023-02-16T07:43:37.515Z,100.00
2023-02-16T07:44:17.523Z,100.00
2023-02-16T07:44:57.638Z,100.00
2023-02-16T07:45:41.550Z,100.00
2023-02-16T07:46:22.631Z,100.00
2023-02-16T07:47:03.715Z,100.00
2023-02-16T07:47:43.630Z,100.00
2023-02-16T07:48:24.572Z,100.00
2023-02-16T07:49:05.277Z,100.00
2023-02-16T07:49:46.598Z,100.00
2023-02-16T07:50:27.599Z,100.00
2023-02-16T07:51:08.646Z,100.00
2023-02-16T07:51:48.627Z,100.00
2023-02-16T07:52:28.531Z,100.00
2023-02-16T07:53:11.761Z,100.00
2023-02-16T07:53:52.562Z,100.00
2023-02-16T07:54:33.612Z,100.00
2023-02-16T07:55:14.575Z,100.00
2023-02-16T07:55:54.598Z,100.00
2023-02-16T07:56:38.509Z,100.00
2023-02-16T07:57:18.605Z,100.00
2023-02-16T07:58:03.546Z,100.00
2023-02-16T07:58:44.608Z,100.00
2023-02-16T07:59:24.529Z,100.00
2023-02-16T08:00:05.271Z,100.00
2023-02-16T08:00:46.532Z,100.00
2023-02-16T08:01:27.688Z,100.00
2023-02-16T08:02:08.697Z,100.00
2023-02-16T08:02:49.692Z,100.00
2023-02-16T08:03:30.620Z,100.00
2023-02-16T08:04:10.647Z,99.98
2023-02-16T08:04:50.524Z,99.97
2023-02-16T08:05:30.717Z,99.50
2023-02-16T08:06:12.559Z,99.83
2023-02-16T08:06:53.600Z,99.75
2023-02-16T08:07:34.512Z,100.00
2023-02-16T08:08:14.650Z,100.00
2023-02-16T08:08:55.546Z,99.47
2023-02-16T08:09:35.701Z,99.93
2023-02-16T08:10:16.494Z,99.83
2023-02-16T08:10:57.557Z,99.28
2023-02-16T08:11:38.699Z,99.54
2023-02-16T08:12:21.857Z,99.64
2023-02-16T08:13:01.516Z,99.25
2023-02-16T08:13:41.628Z,99.48
2023-02-16T08:14:22.504Z,98.92
2023-02-16T08:15:04.446Z,99.15
2023-02-16T08:15:48.505Z,98.99
2023-02-16T08:16:43.620Z,98.27
2023-02-16T08:17:37.494Z,98.76
2023-02-16T08:18:31.527Z,98.65
2023-02-16T08:19:25.498Z,98.75
2023-02-16T08:20:23.834Z,98.62
2023-02-16T08:21:30.500Z,97.85
2023-02-16T08:22:11.526Z,98.28
2023-02-16T08:22:51.566Z,99.08
2023-02-16T08:23:32.495Z,97.95
2023-02-16T08:24:14.733Z,98.25
2023-02-16T08:24:54.554Z,98.69
2023-02-16T08:25:34.564Z,98.52
2023-02-16T08:26:18.545Z,98.18
2023-02-16T08:27:12.572Z,98.13
2023-02-16T08:28:06.487Z,98.36
2023-02-16T08:29:02.519Z,98.52
2023-02-16T08:29:56.493Z,98.30
2023-02-16T08:30:51.700Z,98.09
2023-02-16T08:31:48.567Z,98.05
2023-02-16T08:32:36.516Z,98.31
2023-02-16T08:33:10.563Z,97.99
2023-02-16T08:33:59.502Z,97.97
2023-02-16T08:34:33.701Z,98.03
2023-02-16T08:35:21.476Z,98.09
2023-02-16T08:35:55.688Z,98.07
2023-02-16T08:36:45.512Z,98.29
2023-02-16T08:37:19.686Z,97.71
2023-02-16T08:37:59.496Z,98.18
2023-02-16T08:38:43.157Z,97.86
2023-02-16T08:39:26.481Z,97.59
2023-02-16T08:40:06.922Z,97.61
2023-02-16T08:40:46.491Z,97.38
2023-02-16T08:41:29.524Z,96.95
2023-02-16T08:42:10.464Z,97.60
2023-02-16T08:42:50.530Z,97.13
2023-02-16T08:43:30.494Z,97.18
2023-02-16T08:44:16.648Z,96.82
2023-02-16T08:44:56.608Z,96.79
2023-02-16T08:45:36.598Z,97.13
2023-02-16T08:46:17.583Z,96.59
2023-02-16T08:47:00.946Z,96.00
2023-02-16T08:47:42.495Z,96.15
2023-02-16T08:48:23.342Z,95.80
2023-02-16T08:49:06.572Z,96.21
2023-02-16T08:49:46.764Z,96.39
2023-02-16T08:50:26.479Z,96.34
2023-02-16T08:51:06.699Z,96.42
2023-02-16T08:51:54.563Z,96.19
2023-02-16T08:52:34.549Z,96.30
2023-02-16T08:53:15.494Z,96.70
2023-02-16T08:53:55.954Z,96.03
2023-02-16T08:54:39.497Z,96.26
2023-02-16T08:55:19.627Z,96.37
2023-02-16T08:56:04.764Z,95.88
2023-02-16T08:56:47.115Z,96.13
2023-02-16T08:57:27.477Z,96.10
2023-02-16T08:58:07.559Z,96.45
2023-02-16T08:58:47.466Z,96.53
2023-02-16T08:59:29.780Z,95.91
2023-02-16T09:00:29.481Z,96.29
2023-02-16T09:01:18.731Z,96.37
2023-02-16T09:01:59.504Z,96.39
2023-02-16T09:02:39.614Z,96.00
2023-02-16T09:03:19.501Z,96.38
2023-02-16T09:03:59.543Z,97.05
2023-02-16T09:04:40.466Z,96.17
2023-02-16T09:05:20.540Z,96.08
2023-02-16T09:06:01.566Z,96.17
2023-02-16T09:06:48.911Z,96.27
2023-02-16T09:07:29.467Z,96.09
2023-02-16T09:08:09.542Z,95.96
2023-02-16T09:08:51.466Z,95.96
2023-02-16T09:09:32.557Z,96.45
2023-02-16T09:10:13.464Z,96.59
2023-02-16T09:10:53.540Z,96.63
2023-02-16T09:11:33.460Z,96.03
2023-02-16T09:12:13.510Z,95.66
2023-02-16T09:12:56.460Z,96.16
2023-02-16T09:13:37.850Z,96.12
2023-02-16T09:14:18.461Z,95.78
2023-02-16T09:15:00.516Z,96.16
2023-02-16T09:15:40.425Z,96.45
2023-02-16T09:16:24.554Z,96.13
2023-02-16T09:17:05.541Z,96.52
2023-02-16T09:17:46.506Z,96.48
2023-02-16T09:18:27.444Z,96.30
2023-02-16T09:19:08.507Z,95.83
2023-02-16T09:19:50.507Z,95.73
2023-02-16T09:20:31.098Z,95.57
2023-02-16T09:21:22.431Z,95.47
2023-02-16T09:22:03.220Z,95.42
2023-02-16T09:23:25.947Z,95.03
2023-02-16T09:24:09.443Z,95.38
2023-02-16T09:24:50.517Z,95.56
2023-02-16T09:25:31.426Z,95.41
2023-02-16T09:26:12.533Z,95.30
2023-02-16T09:26:53.407Z,95.01
2023-02-16T09:27:34.722Z,95.10
2023-02-16T09:28:18.487Z,95.27
2023-02-16T09:29:00.542Z,95.05
2023-02-16T09:29:41.448Z,95.41
2023-02-16T09:30:21.599Z,95.96
2023-02-16T09:31:01.512Z,96.01
2023-02-16T09:31:44.982Z,96.41
2023-02-16T09:32:26.417Z,95.77
2023-02-16T09:33:06.522Z,95.61
2023-02-16T09:33:49.478Z,95.48
2023-02-16T09:34:30.474Z,95.02
2023-02-16T09:35:11.406Z,95.62
2023-02-16T09:35:51.567Z,96.19
2023-02-16T09:36:33.437Z,95.90
2023-02-16T09:37:14.629Z,95.39
2023-02-16T09:37:56.421Z,96.63
2023-02-16T09:38:36.714Z,95.40
2023-02-16T09:39:17.468Z,95.73
2023-02-16T09:39:57.494Z,95.35
2023-02-16T09:40:38.399Z,95.40
2023-02-16T09:42:01.522Z,95.72
2023-02-16T09:43:11.426Z,95.01
2023-02-16T09:44:26.493Z,95.27
2023-02-16T09:45:25.423Z,95.43
2023-02-16T09:46:25.488Z,95.75
2023-02-16T09:47:42.414Z,95.89
2023-02-16T09:48:55.419Z,95.85
2023-02-16T09:49:47.447Z,95.81
2023-02-16T09:50:53.925Z,95.27
2023-02-16T09:51:51.423Z,95.22
2023-02-16T09:52:42.569Z,95.63
2023-02-16T09:53:49.381Z,95.78
2023-02-16T09:54:56.431Z,95.79
2023-02-16T09:56:16.469Z,95.83